Time;durP1;ratioP1;P1;durP2;ratioP2;P2;SDS_P1;SDS_P2;PMS_P1;PMS_P2;Temp;Humidity;BMP_temperature;BMP_pressure;BME280_temperature;BME280_humidity;BME280_pressure;Samples;Min_cycle;Max_cycle;Signal;HPM_P1;HPM_P2
2022/03/27 00:03:37;;;;;;;101.40;41.77;;;;;;;3.62;72.79;102254.41;4959682;58;1140874;-70
2022/03/27 00:08:43;;;;;;;127.27;55.63;;;;;;;3.59;73.43;102262.77;4962748;58;1205054;-71
2022/03/27 00:13:49;;;;;;;91.63;36.42;;;;;;;3.57;73.45;102261.94;4956869;58;1140884;-71
2022/03/27 00:18:55;;;;;;;97.90;41.17;;;;;;;3.57;73.49;102269.78;4951377;57;1138735;-70
2022/03/27 00:24:01;;;;;;;73.35;28.60;;;;;;;3.56;73.41;102274.15;4923237;58;1138751;-70
2022/03/27 00:29:07;;;;;;;79.93;32.90;;;;;;;3.54;73.18;102279.86;4919705;58;1138783;-71
2022/03/27 00:34:13;;;;;;;72.53;31.17;;;;;;;3.39;72.25;102272.31;4930578;57;1138854;-71
2022/03/27 00:39:19;;;;;;;86.57;32.93;;;;;;;3.11;71.76;102272.86;4919450;57;1138855;-71
2022/03/27 00:44:25;;;;;;;95.07;37.03;;;;;;;2.89;71.98;102287.66;4911169;58;1138909;-71
2022/03/27 00:49:31;;;;;;;102.73;40.23;;;;;;;2.88;73.21;102282.88;4957078;58;1138763;-71
2022/03/27 00:54:37;;;;;;;86.33;34.73;;;;;;;2.94;73.64;102280.14;4952892;58;1140863;-71
2022/03/27 00:59:43;;;;;;;59.90;25.77;;;;;;;2.91;72.79;102278.02;4965205;58;1138844;-70
2022/03/27 01:04:49;;;;;;;81.67;31.87;;;;;;;2.74;72.38;102279.20;4970505;58;1138864;-70
2022/03/27 01:09:57;;;;;;;96.40;36.48;;;;;;;2.68;73.04;102284.52;4957346;58;1138980;-71
2022/03/27 01:15:03;;;;;;;110.68;44.15;;;;;;;2.66;73.14;102286.73;4958174;57;1138942;-70
2022/03/27 01:20:09;;;;;;;118.10;44.67;;;;;;;2.60;73.24;102277.72;4953253;58;1140954;-70
2022/03/27 01:25:15;;;;;;;120.20;41.73;;;;;;;2.61;73.52;102278.97;4944687;58;1140943;-73
2022/03/27 01:30:21;;;;;;;101.07;40.17;;;;;;;2.66;73.61;102273.67;4920552;58;1141041;-73
2022/03/27 01:35:27;;;;;;;86.17;31.30;;;;;;;2.61;72.78;102271.57;4887298;58;1140999;-71
2022/03/27 01:40:33;;;;;;;59.60;23.70;;;;;;;2.31;72.21;102284.67;4891258;58;1138842;-70
2022/03/27 01:45:41;;;;;;;69.07;25.60;;;;;;;2.25;73.23;102296.09;4891517;58;1138877;-72
2022/03/27 01:51:03;;;;;;;70.60;30.27;;;;;;;2.32;73.78;102300.31;4886507;58;1138814;-71
2022/03/27 01:56:10;;;;;;;84.37;32.93;;;;;;;2.35;73.92;102287.22;4883876;58;1139083;-70
2022/03/27 02:01:16;;;;;;;87.43;33.13;;;;;;;2.35;73.48;102294.20;4870946;58;1138732;-70
2022/03/27 02:06:23;;;;;;;73.97;28.33;;;;;;;2.33;73.47;102289.44;4883533;58;1138932;-71
2022/03/27 02:11:29;;;;;;;80.72;29.25;;;;;;;2.33;73.26;102295.52;4895046;58;1139131;-70
2022/03/27 02:16:36;;;;;;;76.03;33.33;;;;;;;2.22;72.48;102300.05;4874978;58;1138948;-70
2022/03/27 02:21:44;;;;;;;81.90;33.10;;;;;;;2.16;72.81;102296.20;4870863;59;1138857;-70
2022/03/27 02:26:53;;;;;;;73.30;31.30;;;;;;;2.13;73.06;102296.28;4872429;58;1145955;-70
2022/03/27 02:31:59;;;;;;;54.90;24.75;;;;;;;2.11;72.83;102291.52;4930463;58;1138873;-69
2022/03/27 02:37:05;;;;;;;59.63;23.80;;;;;;;1.86;71.96;102288.80;4962013;57;1138855;-70
2022/03/27 02:42:11;;;;;;;55.43;21.83;;;;;;;1.74;72.82;102293.31;4955771;58;1138718;-70
2022/03/27 02:47:16;;;;;;;39.40;17.07;;;;;;;1.72;73.27;102300.72;4977529;57;1138852;-70
2022/03/27 02:52:22;;;;;;;41.13;16.73;;;;;;;1.62;72.61;102306.51;4968274;58;1138803;-71
2022/03/27 02:57:28;;;;;;;33.00;14.20;;;;;;;1.52;72.77;102311.42;4966591;57;1138810;-70
2022/03/27 03:02:34;;;;;;;27.13;11.70;;;;;;;1.53;73.43;102318.33;4959021;58;1138795;-70
2022/03/27 03:07:42;;;;;;;23.50;9.87;;;;;;;1.60;73.65;102325.22;4957403;56;1138870;-70
2022/03/27 03:12:48;;;;;;;25.60;9.97;;;;;;;1.61;73.65;102325.64;4981060;57;1136823;-72
2022/03/27 03:17:54;;;;;;;21.05;8.45;;;;;;;1.62;73.70;102335.63;4957717;57;1136639;-70
2022/03/27 03:23:00;;;;;;;30.57;13.93;;;;;;;1.63;73.50;102337.36;4974959;57;1136625;-70
2022/03/27 03:28:06;;;;;;;38.53;12.57;;;;;;;1.62;73.62;102331.72;4974388;58;1138835;-71
2022/03/27 03:33:12;;;;;;;24.50;8.37;;;;;;;1.57;73.63;102334.38;4944338;57;1138764;-70
2022/03/27 03:38:18;;;;;;;29.10;11.93;;;;;;;1.53;73.53;102333.14;4938796;57;1136859;-69
2022/03/27 03:43:24;;;;;;;27.57;10.97;;;;;;;1.52;73.72;102324.89;4947607;57;1138691;-70
2022/03/27 03:48:30;;;;;;;31.77;11.60;;;;;;;1.50;73.52;102325.34;4957311;57;1138691;-69
2022/03/27 03:53:35;;;;;;;30.30;9.57;;;;;;;1.53;73.75;102321.41;4943899;58;1138762;-70
2022/03/27 03:58:42;;;;;;;23.83;9.93;;;;;;;1.52;73.48;102328.36;4948676;57;1136756;-70
2022/03/27 04:03:49;;;;;;;29.40;10.50;;;;;;;1.48;73.41;102338.40;4957820;57;1136622;-71
2022/03/27 04:08:54;;;;;;;27.52;10.82;;;;;;;1.44;73.10;102336.70;4948868;58;1138830;-70
2022/03/27 04:14:01;;;;;;;27.70;9.73;;;;;;;1.33;72.99;102343.34;4983565;58;1138867;-70
2022/03/27 04:19:06;;;;;;;23.95;9.60;;;;;;;1.25;73.07;102340.36;4970342;58;1136736;-70
2022/03/27 04:24:12;;;;;;;28.15;9.48;;;;;;;1.17;73.07;102341.77;4991827;58;1136732;-70
2022/03/27 04:29:18;;;;;;;24.63;8.35;;;;;;;1.10;73.05;102349.20;4975925;58;1136881;-70
2022/03/27 04:34:24;;;;;;;23.10;9.07;;;;;;;1.09;73.10;102351.38;4958013;57;1136727;-70
2022/03/27 04:39:30;;;;;;;15.60;7.80;;;;;;;1.10;73.19;102353.55;4952979;58;1136858;-69
2022/03/27 04:44:36;;;;;;;22.20;7.77;;;;;;;1.07;73.27;102351.82;4962810;58;1136785;-70
2022/03/27 04:49:42;;;;;;;29.27;9.20;;;;;;;1.07;73.05;102348.39;4891113;58;1136839;-70
2022/03/27 04:54:49;;;;;;;19.32;6.42;;;;;;;1.05;73.20;102350.56;4877473;58;1136736;-71
2022/03/27 04:59:56;;;;;;;16.43;7.20;;;;;;;1.06;73.25;102346.22;4862005;58;1136767;-70
2022/03/27 05:05:03;;;;;;;15.73;7.20;;;;;;;0.99;73.05;102348.00;4885365;58;1136711;-70
2022/03/27 05:10:12;;;;;;;19.80;6.13;;;;;;;0.87;72.89;102343.34;4860064;58;1136843;-70
2022/03/27 05:15:18;;;;;;;23.60;7.50;;;;;;;0.80;73.11;102350.33;4861098;59;1136667;-70
2022/03/27 05:20:27;;;;;;;25.17;7.33;;;;;;;0.75;73.36;102341.70;4867198;58;1136637;-70
2022/03/27 05:25:40;;;;;;;20.67;8.10;;;;;;;0.77;73.72;102352.95;4852828;58;1136822;-71
2022/03/27 05:30:43;;;;;;;17.77;6.20;;;;;;;0.78;74.03;102345.56;4860085;59;1136784;-71
2022/03/27 05:35:49;;;;;;;14.90;5.70;;;;;;;0.75;74.56;102361.67;4862474;57;1137003;-70
2022/03/27 05:40:54;;;;;;;14.03;4.70;;;;;;;0.70;75.01;102370.38;4884221;58;1139346;-70
2022/03/27 05:46:00;;;;;;;13.10;4.47;;;;;;;0.73;76.05;102365.59;4853696;58;1136925;-70
2022/03/27 05:51:06;;;;;;;11.43;4.30;;;;;;;0.77;76.79;102368.57;4862978;59;1136686;-70
2022/03/27 05:56:12;;;;;;;10.47;3.67;;;;;;;0.87;77.69;102374.59;4855129;59;1136713;-70
2022/03/27 06:01:18;;;;;;;13.20;4.07;;;;;;;1.08;78.84;102383.52;4849907;59;1136890;-71
2022/03/27 06:06:23;;;;;;;23.40;5.57;;;;;;;1.40;79.89;102384.09;4860449;58;1136730;-70
2022/03/27 06:11:29;;;;;;;14.10;5.67;;;;;;;1.79;80.45;102378.03;4999231;56;1136713;-71
2022/03/27 06:16:35;;;;;;;15.70;5.53;;;;;;;2.12;80.09;102380.67;4994117;57;1136703;-72
2022/03/27 06:21:40;;;;;;;21.63;6.80;;;;;;;2.35;80.07;102384.27;4976885;56;1136713;-72
2022/03/27 06:26:46;;;;;;;20.20;7.13;;;;;;;2.56;79.65;102387.89;4976932;57;1136924;-71
2022/03/27 06:31:51;;;;;;;20.35;8.38;;;;;;;2.84;79.10;102402.70;4919768;57;1136875;-71
2022/03/27 06:36:57;;;;;;;29.98;9.45;;;;;;;3.04;78.84;102406.32;4912905;58;1136768;-71
2022/03/27 06:42:03;;;;;;;24.85;9.30;;;;;;;3.31;78.80;102408.91;4928489;57;1136662;-72
2022/03/27 06:47:09;;;;;;;35.67;11.00;;;;;;;3.61;78.48;102409.67;4925428;58;1136638;-70
2022/03/27 06:52:16;;;;;;;19.30;7.70;;;;;;;3.95;77.83;102418.19;4929975;57;1138800;-71
2022/03/27 06:57:23;;;;;;;23.63;9.60;;;;;;;4.25;76.52;102416.25;4941352;57;1136618;-71
2022/03/27 07:07:52;;;;;;;23.32;7.65;;;;;;;4.91;71.91;102432.66;4947816;57;1136626;-71
2022/03/27 07:13:01;;;;;;;21.60;9.08;;;;;;;5.17;72.50;102444.72;4933357;58;1136677;-71
2022/03/27 07:18:07;;;;;;;10.50;5.72;;;;;;;5.56;70.27;102452.47;4965971;57;1136812;-71
2022/03/27 07:23:21;;;;;;;33.20;17.83;;;;;;;5.88;67.74;102457.77;4956859;56;1136585;-71
2022/03/27 07:28:30;;;;;;;15.90;5.10;;;;;;;6.09;67.63;102448.90;4962262;57;1138805;-71
2022/03/27 07:33:34;;;;;;;14.37;6.33;;;;;;;6.34;62.22;102444.20;4956616;57;1136785;-71
2022/03/27 07:38:40;;;;;;;19.13;7.57;;;;;;;6.48;59.67;102441.16;4939799;57;1136607;-70
2022/03/27 07:43:46;;;;;;;20.03;8.07;;;;;;;6.54;59.65;102434.42;4947167;57;1136808;-71
2022/03/27 07:48:53;;;;;;;18.34;7.48;;;;;;;6.68;61.15;102430.05;4959483;58;1136744;-73
2022/03/27 07:53:59;;;;;;;14.85;6.55;;;;;;;6.90;61.06;102433.70;4951867;57;1137010;-71
2022/03/27 07:59:05;;;;;;;12.87;5.40;;;;;;;7.17;58.35;102431.13;4785977;57;1136760;-70
2022/03/27 08:04:11;;;;;;;16.20;5.40;;;;;;;7.23;59.27;102424.31;4818991;58;1136642;-71
2022/03/27 08:09:16;;;;;;;13.00;4.47;;;;;;;7.56;57.91;102411.79;4949365;57;1136633;-71
2022/03/27 08:14:31;;;;;;;7.80;2.60;;;;;;;7.84;58.79;102400.67;4959798;57;1136541;-70
2022/03/27 08:19:31;;;;;;;7.93;2.00;;;;;;;7.90;51.18;102396.51;4944683;57;1134793;-70
2022/03/27 08:24:38;;;;;;;5.70;2.23;;;;;;;7.72;48.02;102386.63;4935644;57;1134602;-70
2022/03/27 08:29:44;;;;;;;5.90;1.90;;;;;;;7.80;50.92;102390.30;4902420;58;1134619;-71
2022/03/27 08:34:50;;;;;;;6.50;1.65;;;;;;;8.16;46.48;102388.09;4936681;57;1134709;-70
2022/03/27 08:39:58;;;;;;;11.03;2.58;;;;;;;8.28;44.38;102399.48;4925202;57;1134666;-72
2022/03/27 08:45:03;;;;;;;9.03;4.37;;;;;;;8.41;47.77;102393.70;4906431;58;1136912;-71
2022/03/27 08:50:34;;;;;;;6.70;3.52;;;;;;;8.59;43.96;102388.64;4935511;57;1134691;-71
2022/03/27 08:55:59;;;;;;;5.13;2.40;;;;;;;8.79;43.04;102373.73;4933385;57;1134764;-70
2022/03/27 09:01:07;;;;;;;2.52;1.37;;;;;;;9.07;45.44;102367.32;4908591;57;1134672;-71
2022/03/27 09:06:13;;;;;;;4.43;1.50;;;;;;;9.14;41.41;102353.81;4931303;57;1134669;-72
2022/03/27 09:11:23;;;;;;;5.70;1.40;;;;;;;9.23;41.05;102349.05;4956363;56;1134657;-71
2022/03/27 09:16:28;;;;;;;4.67;2.17;;;;;;;9.47;41.68;102345.37;4939635;57;1134588;-71
2022/03/27 09:21:34;;;;;;;4.60;1.57;;;;;;;9.62;40.65;102338.09;4931524;57;1134719;-70
2022/03/27 09:26:44;;;;;;;7.47;1.27;;;;;;;9.62;38.86;102326.20;4878203;58;1134531;-71
2022/03/27 09:31:58;;;;;;;3.43;1.30;;;;;;;9.78;40.19;102321.05;4957484;57;1134745;-71
2022/03/27 09:37:04;;;;;;;5.53;2.17;;;;;;;9.91;37.48;102321.37;4961722;57;1136686;-71
2022/03/27 09:42:15;;;;;;;8.57;1.43;;;;;;;10.04;36.62;102325.16;4925639;57;1136779;-71
2022/03/27 09:47:25;;;;;;;3.97;1.60;;;;;;;10.04;34.78;102330.45;4917291;57;1138671;-71
2022/03/27 09:52:31;;;;;;;2.67;1.70;;;;;;;10.06;35.47;102328.59;4897696;57;1138850;-71
2022/03/27 09:57:42;;;;;;;6.63;1.70;;;;;;;10.21;33.96;102318.19;4966660;57;1138689;-69
2022/03/27 10:02:52;;;;;;;2.73;1.40;;;;;;;10.26;35.17;102302.55;4915257;57;1138893;-71
2022/03/27 10:07:58;;;;;;;6.47;1.40;;;;;;;10.40;34.58;102293.48;4896270;58;1256124;-70
2022/03/27 10:13:06;;;;;;;8.88;2.40;;;;;;;10.58;35.50;102290.80;4905375;57;1138800;-71
2022/03/27 10:18:22;;;;;;;6.35;2.12;;;;;;;10.72;37.30;102281.31;4899655;57;1139064;-71
2022/03/27 10:23:27;;;;;;;3.73;1.33;;;;;;;10.81;36.28;102275.58;4889645;58;1138956;-70
2022/03/27 10:28:34;;;;;;;5.87;1.70;;;;;;;11.02;34.70;102275.78;4852435;58;1138797;-70
2022/03/27 10:33:41;;;;;;;4.60;2.10;;;;;;;11.23;35.41;102260.58;4845138;58;1138939;-71
2022/03/27 10:39:25;;;;;;;9.60;2.20;;;;;;;11.36;34.31;102243.09;4877820;58;1138880;-72
2022/03/27 10:45:02;;;;;;;54.47;23.73;;;;;;;11.60;35.71;102235.17;4891753;57;1138787;-71
2022/03/27 10:50:13;;;;;;;4.40;2.05;;;;;;;11.70;36.97;102228.02;4964594;57;1142771;-70
2022/03/27 10:55:19;;;;;;;16.60;4.67;;;;;;;11.51;36.43;102213.13;4949711;57;1138735;-70
2022/03/27 11:00:39;;;;;;;5.27;1.90;;;;;;;11.43;38.38;102208.73;4744015;60;1140926;-71
2022/03/27 11:05:52;;;;;;;9.27;3.40;;;;;;;11.49;37.65;102191.62;4776251;60;1138765;-73
2022/03/27 11:11:02;;;;;;;3.30;1.50;;;;;;;11.55;37.21;102187.33;4769401;58;1138758;-71
2022/03/27 11:16:11;;;;;;;6.53;1.85;;;;;;;11.68;36.77;102188.35;4804807;59;1138960;-71
2022/03/27 11:21:34;;;;;;;4.63;2.30;;;;;;;11.89;37.11;102181.03;4787088;59;1138940;-71
2022/03/27 11:26:40;;;;;;;13.83;3.63;;;;;;;12.11;37.83;102178.00;4778354;60;1138825;-72
2022/03/27 11:32:08;;;;;;;5.03;2.87;;;;;;;12.35;35.39;102185.02;4729150;60;1141018;-73
2022/03/27 11:37:25;;;;;;;9.00;2.65;;;;;;;12.45;35.90;102183.05;4709995;60;1138949;-73
2022/03/27 11:42:34;;;;;;;8.33;2.37;;;;;;;12.55;36.22;102152.36;4793962;59;1139048;-72
2022/03/27 11:47:47;;;;;;;5.57;2.90;;;;;;;12.78;36.89;102140.84;4767708;59;1138772;-73
2022/03/27 11:52:52;;;;;;;6.43;2.60;;;;;;;12.85;35.78;102135.52;4880809;57;1139034;-73
2022/03/27 11:58:00;;;;;;;2.73;2.10;;;;;;;12.76;35.61;102140.08;4813192;59;1139251;-74
2022/03/27 12:03:20;;;;;;;4.05;2.67;;;;;;;12.86;38.30;102126.13;4988608;57;1139051;-71
2022/03/27 12:08:40;;;;;;;6.07;2.17;;;;;;;13.03;35.98;102111.81;4979197;57;1138981;-70
2022/03/27 12:13:46;;;;;;;7.03;2.40;;;;;;;13.08;35.47;102122.16;4885019;57;1138761;-70
2022/03/27 12:18:53;;;;;;;26.30;9.73;;;;;;;13.20;35.92;102116.09;4924449;57;1138897;-71
2022/03/27 12:24:03;;;;;;;6.07;2.47;;;;;;;13.33;35.78;102109.05;4954789;57;1147376;-71
2022/03/27 12:29:43;;;;;;;9.35;2.33;;;;;;;13.43;35.25;102102.69;4901244;58;1138712;-71
2022/03/27 12:34:52;;;;;;;11.70;4.23;;;;;;;13.46;35.13;102098.48;4849161;58;1138799;-71
2022/03/27 12:40:05;;;;;;;8.05;2.77;;;;;;;13.61;36.20;102082.86;4880549;58;1141026;-71
2022/03/27 12:45:29;;;;;;;10.23;2.43;;;;;;;13.72;34.12;102070.59;4817611;58;1138862;-71
2022/03/27 12:50:38;;;;;;;5.30;2.07;;;;;;;13.81;34.95;102075.77;4864796;58;1140928;-71
2022/03/27 12:55:48;;;;;;;5.07;2.87;;;;;;;13.84;34.03;102028.17;4863030;58;1138703;-71
2022/03/27 13:01:17;;;;;;;7.15;2.85;;;;;;;13.84;34.03;102028.17;4841033;59;1138799;-70
2022/03/27 13:06:35;;;;;;;4.93;2.53;;;;;;;13.93;34.96;102051.00;4795327;59;1139138;-71
2022/03/27 13:11:46;;;;;;;8.20;3.23;;;;;;;14.03;34.63;102043.27;4797565;59;1138987;-71
2022/03/27 13:16:58;;;;;;;9.17;2.80;;;;;;;14.16;33.71;102036.63;4767727;59;1138932;-70
2022/03/27 13:22:03;;;;;;;6.83;1.40;;;;;;;14.16;34.50;102027.32;4896335;58;1138876;-71
2022/03/27 13:27:09;;;;;;;10.05;2.02;;;;;;;14.18;34.58;102024.94;4737330;60;1139186;-70
2022/03/27 13:32:15;;;;;;;6.78;3.62;;;;;;;14.18;32.85;102021.42;4738718;60;1140923;-71
2022/03/27 13:37:21;;;;;;;4.57;1.93;;;;;;;14.19;35.62;102013.34;4742646;60;1138914;-71
2022/03/27 13:47:49;;;;;;;;;;;;;;;14.22;34.70;101996.28;4848795;57;1138829;-71
2022/03/27 13:52:55;;;;;;;10.87;5.67;;;;;;;14.33;34.20;101993.75;4856252;57;976112;-71
2022/03/27 13:58:01;;;;;;;7.97;2.47;;;;;;;14.34;34.07;101990.98;4830538;58;1138947;-72
2022/03/27 14:03:07;;;;;;;7.28;2.00;;;;;;;14.31;34.70;101977.88;4847293;59;1138859;-71
2022/03/27 14:08:13;;;;;;;5.28;2.35;;;;;;;14.34;34.77;101963.52;4837039;58;1139224;-71
2022/03/27 14:13:19;;;;;;;8.43;2.83;;;;;;;14.50;35.06;101957.51;4838850;59;1138905;-70
2022/03/27 14:18:24;;;;;;;5.40;2.70;;;;;;;14.71;35.68;101940.45;4858549;57;1138946;-71
2022/03/27 14:23:30;;;;;;;10.13;2.40;;;;;;;14.85;33.82;101939.45;4861393;58;1138898;-71
2022/03/27 14:28:38;;;;;;;5.13;2.60;;;;;;;14.79;34.78;101938.10;4859068;59;1141028;-71
2022/03/27 14:33:44;;;;;;;11.20;3.23;;;;;;;14.84;35.22;101921.28;4812627;59;1138763;-70
2022/03/27 14:38:50;;;;;;;17.57;4.93;;;;;;;14.90;35.82;101921.33;4819491;58;1140936;-70
2022/03/27 14:43:56;;;;;;;12.17;2.83;;;;;;;14.91;35.00;101909.23;4805018;57;1140882;-71
2022/03/27 14:49:01;;;;;;;9.47;3.10;;;;;;;14.94;35.99;101902.34;4813784;57;1141923;-71
2022/03/27 14:59:31;;;;;;;16.60;2.97;;;;;;;15.11;35.34;101881.96;4815408;58;1138862;-71
2022/03/27 15:04:37;;;;;;;12.93;3.70;;;;;;;15.02;35.48;101867.13;4813258;58;1140881;-71
2022/03/27 15:09:43;;;;;;;7.20;2.83;;;;;;;14.96;35.84;101842.30;4808216;58;1140806;-71
2022/03/27 15:14:50;;;;;;;7.40;2.47;;;;;;;14.86;35.76;101835.94;4811162;58;1138828;-71
2022/03/27 15:19:55;;;;;;;4.27;2.03;;;;;;;14.88;36.66;101835.34;4829931;58;1138769;-71
2022/03/27 15:25:02;;;;;;;5.13;2.60;;;;;;;14.80;36.77;101833.27;4812972;59;1138932;-72
2022/03/27 15:30:10;;;;;;;54.87;20.60;;;;;;;14.81;36.87;101830.13;4786628;58;1138831;-71
2022/03/27 15:35:16;;;;;;;7.67;3.63;;;;;;;14.70;36.75;101818.91;4850785;59;1143114;-71
2022/03/27 15:40:22;;;;;;;25.53;8.97;;;;;;;14.73;37.54;101814.70;4914713;58;1138612;-71
2022/03/27 15:45:29;;;;;;;13.30;3.33;;;;;;;14.64;38.28;101801.59;4920251;58;1140921;-71
2022/03/27 15:50:35;;;;;;;17.27;8.37;;;;;;;14.66;38.21;101795.68;4915409;58;1140862;-71
2022/03/27 15:55:41;;;;;;;26.33;12.93;;;;;;;14.67;38.63;101790.70;4903966;58;1140914;-72
2022/03/27 16:00:46;;;;;;;18.33;7.37;;;;;;;14.69;38.82;101791.91;4889531;57;1142963;-72
2022/03/27 16:05:52;;;;;;;10.20;4.07;;;;;;;14.69;39.53;101789.25;4889714;57;1140942;-72
2022/03/27 16:10:58;;;;;;;9.60;4.50;;;;;;;14.58;39.01;101787.39;4786475;58;1140767;-71
2022/03/27 16:16:07;;;;;;;15.27;6.10;;;;;;;14.40;39.25;101774.95;4849156;58;1138686;-71
2022/03/27 16:21:15;;;;;;;14.78;6.83;;;;;;;14.36;40.10;101773.44;4831923;58;1140830;-71
2022/03/27 16:26:23;;;;;;;9.30;4.55;;;;;;;14.28;40.32;101778.97;4835533;58;1141020;-73
2022/03/27 16:31:29;;;;;;;24.90;14.13;;;;;;;14.17;40.53;101778.91;4804515;58;1138855;-74
2022/03/27 16:36:35;;;;;;;42.43;17.87;;;;;;;14.07;41.15;101774.72;4798833;59;1143001;-75
2022/03/27 16:41:40;;;;;;;31.47;13.50;;;;;;;14.03;41.52;101775.45;4806981;58;1143166;-74
2022/03/27 16:46:46;;;;;;;21.13;8.53;;;;;;;13.98;41.92;101772.26;4887543;57;1142935;-73
2022/03/27 16:51:52;;;;;;;36.17;17.40;;;;;;;13.91;42.12;101764.33;4903434;57;1140969;-75
2022/03/27 16:57:00;;;;;;;479.27;335.57;;;;;;;13.83;42.48;101755.22;4838275;58;1143403;-75
2022/03/27 17:02:09;;;;;;;595.10;444.97;;;;;;;13.75;42.90;101757.08;4877117;57;1147322;-75
2022/03/27 17:07:14;;;;;;;201.60;157.57;;;;;;;13.62;43.25;101746.47;4927386;57;1147093;-75
2022/03/27 17:12:20;;;;;;;74.85;39.75;;;;;;;13.51;43.64;101739.74;4945188;57;1147081;-75
2022/03/27 17:17:28;;;;;;;29.23;13.13;;;;;;;13.43;43.98;101743.91;4938258;58;1142998;-75
2022/03/27 17:27:41;;;;;;;16.03;6.87;;;;;;;13.23;44.51;101746.61;4751395;59;1143027;-75
2022/03/27 17:32:47;;;;;;;19.87;11.53;;;;;;;13.15;44.73;101744.47;4772240;59;1140918;-75
2022/03/27 17:37:53;;;;;;;30.90;15.20;;;;;;;13.06;45.15;101734.94;4763440;59;1143280;-74
2022/03/27 17:43:01;;;;;;;48.83;19.30;;;;;;;12.94;45.38;101722.03;4783177;59;1143272;-75
2022/03/27 17:48:07;;;;;;;27.20;13.93;;;;;;;12.81;45.69;101723.34;4767248;59;1143100;-76
2022/03/27 17:53:13;;;;;;;31.83;18.07;;;;;;;12.67;45.93;101717.64;4767030;59;1143026;-75
2022/03/27 17:58:20;;;;;;;34.13;16.97;;;;;;;12.54;46.08;101718.06;4767993;59;1143134;-75
2022/03/27 18:03:25;;;;;;;46.27;20.00;;;;;;;12.44;46.19;101718.31;4749503;60;1143191;-74
2022/03/27 18:08:31;;;;;;;29.23;12.73;;;;;;;12.38;46.35;101719.18;4778371;59;1143093;-75
2022/03/27 18:13:37;;;;;;;54.63;29.17;;;;;;;12.32;46.35;101724.44;4774491;59;1143200;-75
2022/03/27 18:18:45;;;;;;;117.20;45.53;;;;;;;12.21;46.49;101721.17;4756437;59;1143060;-75
2022/03/27 18:23:50;;;;;;;217.70;100.43;;;;;;;12.07;46.63;101730.46;4810132;58;1145229;-75
2022/03/27 18:28:59;;;;;;;145.33;71.80;;;;;;;11.94;46.93;101729.55;4917250;58;1147550;-75
2022/03/27 18:34:05;;;;;;;86.08;39.10;;;;;;;11.77;47.25;101729.30;4961837;57;1145289;-75
2022/03/27 18:39:11;;;;;;;86.55;37.50;;;;;;;11.68;47.56;101726.36;4927728;58;1142984;-76
2022/03/27 18:44:17;;;;;;;90.85;36.53;;;;;;;11.56;47.73;101733.28;4839519;57;1142945;-75
2022/03/27 18:49:23;;;;;;;118.60;53.65;;;;;;;11.45;47.87;101732.64;4927566;57;1143088;-73
2022/03/27 18:54:29;;;;;;;115.97;51.93;;;;;;;11.45;48.18;101733.11;4913130;57;1145127;-72
2022/03/27 18:59:35;;;;;;;114.33;51.90;;;;;;;11.39;48.33;101730.35;4900093;57;1145252;-71
2022/03/27 19:04:41;;;;;;;147.83;62.83;;;;;;;11.28;48.58;101732.34;4790951;58;1145214;-73
2022/03/27 19:09:46;;;;;;;131.53;50.17;;;;;;;11.16;48.80;101734.39;4786122;59;1145336;-72
2022/03/27 19:14:52;;;;;;;115.83;43.03;;;;;;;11.06;48.96;101733.25;4800524;59;1145134;-72
2022/03/27 19:20:08;;;;;;;71.02;27.60;;;;;;;10.91;49.23;101728.87;4946304;57;1145118;-72
2022/03/27 19:25:14;;;;;;;99.77;34.70;;;;;;;10.78;49.53;101731.41;4921797;57;1142913;-72
2022/03/27 19:30:21;;;;;;;59.65;21.97;;;;;;;10.70;49.72;101732.31;4885031;57;1143082;-72
2022/03/27 19:35:27;;;;;;;67.07;24.40;;;;;;;10.64;49.99;101729.19;4885484;58;1142872;-72
2022/03/27 19:40:33;;;;;;;58.93;22.40;;;;;;;10.60;50.23;101725.87;4914760;57;1142952;-72
2022/03/27 19:45:40;;;;;;;57.97;19.90;;;;;;;10.55;50.44;101719.52;4910096;57;1143110;-72
2022/03/27 19:50:46;;;;;;;60.57;23.57;;;;;;;10.49;50.64;101715.07;4919046;57;1143068;-72
2022/03/27 19:55:51;;;;;;;56.17;21.03;;;;;;;10.41;50.83;101715.97;4902741;58;1142867;-72
2022/03/27 20:00:59;;;;;;;54.43;20.57;;;;;;;10.36;51.02;101698.21;4885963;57;1142812;-72
2022/03/27 20:06:04;;;;;;;44.33;14.17;;;;;;;10.27;51.20;101699.58;4886423;58;1142838;-72
2022/03/27 20:11:10;;;;;;;33.23;15.00;;;;;;;10.17;51.56;101690.45;4852691;57;1253439;-73
2022/03/27 20:16:16;;;;;;;26.73;12.80;;;;;;;10.04;51.94;101694.27;4852543;57;1188799;-73
2022/03/27 20:21:23;;;;;;;26.77;11.75;;;;;;;9.89;52.40;101696.45;4857378;57;1143088;-73
2022/03/27 20:26:29;;;;;;;28.97;12.70;;;;;;;9.78;52.95;101697.48;4902038;57;1140895;-73
2022/03/27 20:31:35;;;;;;;27.00;11.47;;;;;;;9.72;53.13;101695.20;4907805;57;1140864;-73
2022/03/27 20:36:41;;;;;;;28.10;13.37;;;;;;;9.64;53.58;101701.36;4897719;57;1140838;-73
2022/03/27 20:41:47;;;;;;;31.57;13.00;;;;;;;9.56;53.75;101693.02;4900176;57;1140832;-72
2022/03/27 20:46:53;;;;;;;31.53;13.40;;;;;;;9.48;54.08;101696.92;4932495;57;1140869;-72
2022/03/27 20:52:00;;;;;;;31.43;12.90;;;;;;;9.44;54.26;101692.77;4853456;57;1138791;-72
2022/03/27 20:57:07;;;;;;;31.93;13.87;;;;;;;9.41;54.44;101686.78;4915802;56;1145211;-73
2022/03/27 21:02:13;;;;;;;31.77;13.50;;;;;;;9.34;54.56;101679.65;4912807;58;1138893;-72
2022/03/27 21:07:18;;;;;;;31.27;13.28;;;;;;;9.31;54.57;101679.84;4906386;57;1138884;-73
2022/03/27 21:12:24;;;;;;;33.38;14.12;;;;;;;9.24;54.87;101682.41;4954275;56;1138982;-74
2022/03/27 21:17:30;;;;;;;35.10;14.17;;;;;;;9.20;55.04;101675.58;4936009;57;1138791;-73
2022/03/27 21:22:36;;;;;;;40.03;13.88;;;;;;;9.13;55.40;101661.88;4931606;56;1139270;-73
2022/03/27 21:27:42;;;;;;;31.73;12.63;;;;;;;9.04;55.78;101659.70;4942594;56;1138903;-73
2022/03/27 21:32:47;;;;;;;35.23;12.53;;;;;;;8.97;56.12;101658.81;4935920;57;1138731;-73
2022/03/27 21:37:53;;;;;;;31.93;13.00;;;;;;;8.94;56.13;101653.69;4920402;57;1139308;-72
2022/03/27 21:42:59;;;;;;;27.53;12.53;;;;;;;8.87;56.20;101649.66;4926927;56;1138942;-73
2022/03/27 21:48:08;;;;;;;33.90;13.47;;;;;;;8.87;56.22;101647.02;4940554;57;1138956;-73
2022/03/27 21:53:14;;;;;;;31.40;13.20;;;;;;;8.81;56.30;101642.47;4905397;57;1139010;-72
2022/03/27 21:58:20;;;;;;;26.03;11.87;;;;;;;8.81;56.27;101644.25;4765915;59;1138881;-72
2022/03/27 22:03:26;;;;;;;33.13;12.40;;;;;;;8.79;56.44;101633.78;4822099;59;1138768;-72
2022/03/27 22:08:32;;;;;;;28.90;12.37;;;;;;;8.77;56.46;101630.36;4751511;60;1138805;-72
2022/03/27 22:13:41;;;;;;;40.70;16.17;;;;;;;8.78;56.45;101625.47;4709464;60;1138639;-72
2022/03/27 22:18:47;;;;;;;33.17;12.77;;;;;;;8.77;56.35;101620.27;4718660;61;1138802;-71
2022/03/27 22:23:52;;;;;;;27.00;12.00;;;;;;;8.73;56.42;101614.77;4775019;60;1138774;-71
2022/03/27 22:29:00;;;;;;;29.30;12.53;;;;;;;8.66;56.56;101608.98;4776499;59;1138851;-71
2022/03/27 22:34:07;;;;;;;30.73;12.53;;;;;;;8.57;56.81;101605.48;4918404;58;1138677;-71
2022/03/27 22:39:14;;;;;;;50.23;19.60;;;;;;;8.52;57.04;101604.89;4811610;59;1138828;-71
2022/03/27 22:44:19;;;;;;;35.73;14.83;;;;;;;8.45;57.20;101594.26;4907458;58;1138791;-71
2022/03/27 22:49:25;;;;;;;45.40;15.68;;;;;;;8.34;57.48;101588.23;4840664;58;1138973;-71
2022/03/27 22:54:31;;;;;;;40.23;16.50;;;;;;;8.28;57.89;101585.01;4876066;58;1138714;-71
2022/03/27 22:59:37;;;;;;;34.17;13.93;;;;;;;8.23;58.15;101591.00;4819835;59;1138961;-71
2022/03/27 23:04:43;;;;;;;24.30;11.97;;;;;;;8.17;58.48;101576.80;4857079;57;1138779;-71
2022/03/27 23:09:49;;;;;;;34.00;12.20;;;;;;;8.15;58.75;101574.70;4890092;57;1138934;-71
2022/03/27 23:14:55;;;;;;;31.57;13.47;;;;;;;8.13;59.00;101573.00;4826003;58;1138738;-71
2022/03/27 23:20:01;;;;;;;27.60;12.40;;;;;;;8.13;59.19;101567.73;4889460;58;1138683;-71
2022/03/27 23:25:08;;;;;;;26.87;12.53;;;;;;;8.06;59.59;101560.23;4962002;57;1138750;-71
2022/03/27 23:30:14;;;;;;;30.20;13.17;;;;;;;8.02;59.86;101552.94;4938161;58;1138740;-71